»·PEaware :: N116B L70-KFUL

N116B :: L70-KFUL

FLIGHT INFORMATION

Flight Status: Arrived
Operator: Privately registered:
United States
More flights under this callsign
Pilot: Caleb T. (18788)
Aircraft: BEECH AIRCRAFT BARON
(BE58)
More flights by this aircraft type
Origin: L70 Agua Dulce
United States
Destination: KFUL Fullerton Mun
United States
More flights between these airports :: More routes between these airports
Route: EMT
File this flight plan on PilotEdge
Remarks:
Altitude:
(Current/Filed)
5,500ft
Speed:
(Current/Filed)
130kts
Departed: 12-Jun-18 10:57 AM
Arrived: 12-Jun-18 11:16 AM
Distance/Time
Traveled:
41nm/0:19
Distance/Time
To Go:
Arrived

Flight Plot

Page will automatically refresh every two minutes.

Flight plan parsing failed; only flown route is shown


Map Options




Map Legend


Flown Route
Filed Route
Departure Airport
Arrival Airport
Navaid (VOR, NDB)
Fix

Horizontal Profiles

Position Reports

Time Latitude Longitude Heading Altitude Ground
Speed
12-Jun-18 10:28 34.505199 -118.309141 319 2661ft 0kts
12-Jun-18 10:29 34.505199 -118.309141 319 2661ft 0kts
12-Jun-18 10:30 34.505199 -118.309141 319 2661ft 0kts
12-Jun-18 10:31 34.505199 -118.309141 319 2661ft 0kts
12-Jun-18 10:32 34.505199 -118.309141 319 2661ft 0kts
12-Jun-18 10:33 34.505199 -118.309141 319 2661ft 0kts
12-Jun-18 10:34 34.505199 -118.309141 319 2661ft 0kts
12-Jun-18 10:35 34.505199 -118.309141 319 2661ft 0kts
12-Jun-18 10:36 34.505199 -118.309141 319 2661ft 0kts
12-Jun-18 10:37 34.505199 -118.309141 319 2661ft 0kts
12-Jun-18 10:38 34.505199 -118.309141 319 2661ft 0kts
12-Jun-18 10:39 34.505199 -118.309141 319 2661ft 0kts
12-Jun-18 10:40 34.505199 -118.309141 319 2661ft 0kts
12-Jun-18 10:41 34.505199 -118.309141 319 2661ft 0kts
12-Jun-18 10:42 34.505199 -118.309141 319 2661ft 0kts
12-Jun-18 10:43 34.505199 -118.309141 319 2661ft 0kts
12-Jun-18 10:44 34.505199 -118.309141 319 2661ft 0kts
12-Jun-18 10:45 34.505199 -118.309141 319 2661ft 0kts
12-Jun-18 10:46 34.505199 -118.309141 319 2661ft 0kts
12-Jun-18 10:47 34.505199 -118.309141 319 2661ft 0kts
12-Jun-18 10:48 34.505199 -118.309141 319 2661ft 0kts
12-Jun-18 10:49 34.505199 -118.309141 319 2661ft 0kts
12-Jun-18 10:50 34.505199 -118.309141 319 2661ft 0kts
12-Jun-18 10:51 34.505773 -118.308195 321 2661ft 0kts
12-Jun-18 10:52 34.505773 -118.308195 321 2661ft 0kts
12-Jun-18 10:53 34.505773 -118.308195 321 2661ft 0kts
12-Jun-18 10:54 34.505818 -118.308237 323 2661ft 2kts
12-Jun-18 10:55 34.506832 -118.306979 49 2661ft 8kts
12-Jun-18 10:56 34.506974 -118.306775 36 2661ft 0kts
12-Jun-18 10:57 34.503765 -118.312751 233 2661ft 97kts
12-Jun-18 10:58 34.478076 -118.334261 196 3504ft 124kts
12-Jun-18 10:59 34.451221 -118.313008 114 4596ft 132kts
12-Jun-18 11:00 34.436131 -118.272885 131 5677ft 133kts
12-Jun-18 11:01 34.405425 -118.247421 152 6689ft 134kts
12-Jun-18 11:02 34.372736 -118.225116 152 7323ft 155kts
12-Jun-18 11:03 34.330300 -118.196220 151 7011ft 183kts
12-Jun-18 11:04 34.285888 -118.165840 151 6830ft 183kts
12-Jun-18 11:05 34.241587 -118.135556 151 6659ft 183kts
12-Jun-18 11:06 34.196969 -118.105152 151 6081ft 186kts
12-Jun-18 11:07 34.149978 -118.073104 151 4411ft 200kts
12-Jun-18 11:08 34.102905 -118.041024 151 3407ft 173kts
12-Jun-18 11:09 34.064504 -118.014215 150 3425ft 153kts
12-Jun-18 11:10 34.028179 -117.988305 150 3429ft 151kts
12-Jun-18 11:11 33.992244 -117.962809 150 3426ft 149kts
12-Jun-18 11:12 33.956164 -117.939422 176 3235ft 162kts
12-Jun-18 11:13 33.915178 -117.958027 181 1578ft 124kts
12-Jun-18 11:14 33.885266 -117.953781 178 742ft 103kts
12-Jun-18 11:15 33.872567 -117.977026 256 97ft 78kts
12-Jun-18 11:16 33.872647 -117.981169 1 97ft 6kts
12-Jun-18 11:17 33.873381 -117.980713 350 97ft 0kts
12-Jun-18 11:18 33.873381 -117.980713 350 97ft 0kts

Navigation Log

Ident Type
Flight plan parsing failed, navigation log unavailable